Pagrindinis puslapis
METAR-TAF:

METAR-TAF

Oro uostai :

Harlingen, Teksasas, Jungtinės Amerikos Valstijos

platuma: 26-13-47N, ilguma: 097-39-19W, Aukštis: 10 m

Dabartinis oras

Ataskaita buvo paskelbta 27 minutes, ne 04:52 UTC
Vėjas 3 kt iš Pietryčių
Temperatūra 23°C
Drėgmė 94%
Slėgis 1013 hPa
Matomumas: 16.1 km
Giedras dangus

METAR: KHRL 270452Z 14003KT 10SM CLR 23/22 A2992 RMK AO2 SLP131 T02280217

Laikas: 00:19 (05:19 UTC)

Prognozė

Ataskaita buvo paskelbta 5 valandos ir 44 minutes, ne 23:35 UTC
Prognozė galioja nuo 27 metu 00 UTC su 27 metu 24 UTC
Vėjas 8 kt iš Rytų/Šiaurės Rytų
Matomumas: 10 km
Mažai debesys ne aukštis 2700 ft
Mažai debesys ne aukštis 3500 ft
Mažai debesys ne aukštis 12000 ft
Nuo 27 metu 0300 UTC
Vėjas 3 kt nuo kintamojo kryptimis
Matomumas: 10 km
Išsisklaidę debesys ne aukštis 25000 ft
Nuo 27 metu 1900 UTC
Vėjas 9 kt iš Pietryčių
Matomumas: 10 km
Išsisklaidę debesys ne aukštis 25000 ft

TAF: KHRL 262335Z 2700/2724 07008KT P6SM FEW027 FEW035 FEW120 FM270300 VRB03KT P6SM SCT250 FM271900 14009KT P6SM SCT250

Orai ataskaitas ir orų prognozės (METAR, TAF).

turimą stotys yra geltonos ir raudonos taškus žemėlapyje.

Perkelti pele per norėdami pamatyti stoties vardą.

Tada spustelėkite, norėdami matyti oro stebėjimo ir prognozės.

Norėdami pakeisti žemėlapį: spustelėkite ant žalios mygtukų su juodo kryžiaus žemyn,; žalią mygtuką su brūkšneliu, jei norite nutolinti; arba žalių rodyklių gretimoms žemėlapius.


METAR-TAF: